createdAt,value
2022-10-09T00:01:03.552Z,97956.38
2022-10-09T00:03:42.493Z,97961.13
2022-10-09T00:06:13.747Z,97967.59
2022-10-09T00:08:43.915Z,97969.03
2022-10-09T00:11:17.245Z,97963.78
2022-10-09T00:13:46.076Z,97958.19
2022-10-09T00:16:15.735Z,97960.91
2022-10-09T00:18:44.399Z,97948.16
2022-10-09T00:21:22.546Z,97956.16
2022-10-09T00:23:51.686Z,97955.69
2022-10-09T00:26:20.435Z,97957.56
2022-10-09T00:28:49.211Z,97953.84
2022-10-09T00:31:18.094Z,97949.66
2022-10-09T00:33:47.227Z,97940.88
2022-10-09T00:36:17.383Z,97948.63
2022-10-09T00:38:47.446Z,97938.53
2022-10-09T00:41:17.343Z,97942.34
2022-10-09T00:43:48.917Z,97954.38
2022-10-09T00:46:22.698Z,97950.19
2022-10-09T00:48:59.137Z,97953.78
2022-10-09T00:51:27.487Z,97940.22
2022-10-09T00:53:57.696Z,97950.31
2022-10-09T00:56:26.942Z,97941.16
2022-10-09T00:58:56.934Z,97944.16
2022-10-09T01:01:25.361Z,97946.41
2022-10-09T01:03:53.904Z,97940.69
2022-10-09T01:06:26.643Z,97941.63
2022-10-09T01:09:01.263Z,97936.16
2022-10-09T01:11:38.153Z,97931.38
2022-10-09T01:14:10.845Z,97939.47
2022-10-09T01:16:43.323Z,97940.09
2022-10-09T01:19:21.942Z,97940.44
2022-10-09T01:21:57.506Z,97938.66
2022-10-09T01:24:31.335Z,97936.41
2022-10-09T01:27:08.936Z,97943.41
2022-10-09T01:29:39.183Z,97937.47
2022-10-09T01:32:09.774Z,97933.06
2022-10-09T01:34:39.883Z,97924.25
2022-10-09T01:37:08.975Z,97931.19
2022-10-09T01:39:37.436Z,97934.97
2022-10-09T01:42:07.593Z,97926.16
2022-10-09T01:44:36.086Z,97925.78
2022-10-09T01:47:05.157Z,97925.06
2022-10-09T01:49:45.114Z,97917.22
2022-10-09T01:52:23.425Z,97917.59
2022-10-09T01:55:00.283Z,97918.78
2022-10-09T01:57:34.534Z,97914.75
2022-10-09T02:00:06.183Z,97916.88
2022-10-09T02:02:35.244Z,97915.78
2022-10-09T02:05:03.637Z,97915.31
2022-10-09T02:07:33.083Z,97902.94
2022-10-09T02:10:02.544Z,97899.59
2022-10-09T02:12:34.573Z,97900.44
2022-10-09T02:15:02.973Z,97902.84
2022-10-09T02:17:34.365Z,97900.94
2022-10-09T02:20:06.738Z,97900.94
2022-10-09T02:22:35.423Z,97902.22
2022-10-09T02:25:06.343Z,97900.91
2022-10-09T02:27:36.096Z,97904.47
2022-10-09T02:30:05.084Z,97903.41
2022-10-09T02:32:33.515Z,97904.00
2022-10-09T02:35:01.892Z,97911.97
2022-10-09T02:37:30.196Z,97888.66
2022-10-09T02:39:58.563Z,97902.22
2022-10-09T02:42:27.203Z,97897.72
2022-10-09T02:44:56.953Z,97897.50
2022-10-09T02:47:25.703Z,97904.38
2022-10-09T02:49:54.026Z,97897.59
2022-10-09T02:52:22.333Z,97896.88
2022-10-09T02:54:50.763Z,97895.56
2022-10-09T02:57:19.833Z,97896.78
2022-10-09T02:59:48.182Z,97897.59
2022-10-09T03:02:18.548Z,97894.72
2022-10-09T03:04:47.026Z,97893.28
2022-10-09T03:07:15.372Z,97891.03
2022-10-09T03:09:43.678Z,97888.78
2022-10-09T03:12:12.347Z,97884.13
2022-10-09T03:14:40.684Z,97885.94
2022-10-09T03:17:08.983Z,97883.06
2022-10-09T03:19:38.823Z,97883.28
2022-10-09T03:22:07.123Z,97887.69
2022-10-09T03:24:35.473Z,97886.97
2022-10-09T03:27:03.715Z,97891.38
2022-10-09T03:29:32.435Z,97879.47
2022-10-09T03:32:00.834Z,97892.34
2022-10-09T03:34:29.143Z,97891.63
2022-10-09T03:36:58.883Z,97891.84
2022-10-09T03:39:27.205Z,97893.28
2022-10-09T03:41:55.443Z,97890.53
2022-10-09T03:44:24.274Z,97892.91
2022-10-09T03:46:56.310Z,97896.94
2022-10-09T03:49:24.595Z,97900.75
2022-10-09T03:51:52.810Z,97901.47
2022-10-09T03:54:22.493Z,97899.09
2022-10-09T03:56:50.896Z,97903.34
2022-10-09T03:59:19.068Z,97904.56
2022-10-09T04:01:47.484Z,97897.63
2022-10-09T04:04:15.863Z,97901.94
2022-10-09T04:06:44.125Z,97898.25
2022-10-09T04:09:12.503Z,97895.88
2022-10-09T04:11:42.315Z,97896.25
2022-10-09T04:14:10.978Z,97889.94
2022-10-09T04:16:39.429Z,97903.19
2022-10-09T04:19:07.790Z,97895.91
2022-10-09T04:21:36.163Z,97902.81
2022-10-09T04:24:04.494Z,97904.72
2022-10-09T04:26:32.744Z,97905.78
2022-10-09T04:29:02.507Z,97905.19
2022-10-09T04:31:30.827Z,97906.41
2022-10-09T04:33:59.476Z,97899.84
2022-10-09T04:36:27.886Z,97897.81
2022-10-09T04:38:56.125Z,97903.16
2022-10-09T04:41:24.464Z,97894.81
2022-10-09T04:43:55.823Z,97892.00
2022-10-09T04:46:25.673Z,97893.50
2022-10-09T04:48:54.514Z,97891.03
2022-10-09T04:51:22.916Z,97891.84
2022-10-09T04:53:51.293Z,97893.06
2022-10-09T04:56:21.936Z,97891.72
2022-10-09T04:58:50.506Z,97889.81
2022-10-09T05:01:21.715Z,97897.13
2022-10-09T05:03:52.306Z,97895.69
2022-10-09T05:06:22.156Z,97897.47
2022-10-09T05:08:50.595Z,97902.84
2022-10-09T05:11:20.596Z,97891.03
2022-10-09T05:13:52.344Z,97900.22
2022-10-09T05:16:23.408Z,97901.28
2022-10-09T05:18:55.326Z,97899.63
2022-10-09T05:21:23.816Z,97900.31
2022-10-09T05:23:52.526Z,97901.28
2022-10-09T05:26:22.416Z,97910.69
2022-10-09T05:28:51.007Z,97909.75
2022-10-09T05:31:22.074Z,97903.66
2022-10-09T05:33:50.679Z,97906.66
2022-10-09T05:36:20.835Z,97912.84
2022-10-09T05:38:49.254Z,97916.16
2022-10-09T05:41:19.195Z,97912.09
2022-10-09T05:43:49.010Z,97908.19
2022-10-09T05:46:18.899Z,97902.59
2022-10-09T05:48:53.145Z,97919.16
2022-10-09T05:51:24.815Z,97908.91
2022-10-09T05:53:53.595Z,97923.53
2022-10-09T05:56:23.735Z,97917.34
2022-10-09T05:58:53.703Z,97917.81
2022-10-09T06:01:23.257Z,97916.16
2022-10-09T06:03:51.956Z,97910.56
2022-10-09T06:06:21.275Z,97916.16
2022-10-09T06:08:51.015Z,97920.69
2022-10-09T06:11:21.180Z,97921.16
2022-10-09T06:13:49.985Z,97913.28
2022-10-09T06:16:19.226Z,97912.09
2022-10-09T06:18:49.702Z,97918.75
2022-10-09T06:21:18.703Z,97913.75
2022-10-09T06:23:52.375Z,97917.94
2022-10-09T06:26:21.935Z,97922.81
2022-10-09T06:28:50.478Z,97924.81
2022-10-09T06:31:21.122Z,97925.78
2022-10-09T06:33:50.876Z,97933.00
2022-10-09T06:36:21.117Z,97933.38
2022-10-09T06:38:49.375Z,97941.22
2022-10-09T06:41:20.718Z,97936.00
2022-10-09T06:43:51.686Z,97940.34
2022-10-09T06:46:20.274Z,97943.41
2022-10-09T06:48:48.666Z,97943.75
2022-10-09T06:51:18.636Z,97950.75
2022-10-09T06:53:48.645Z,97946.91
2022-10-09T06:56:19.166Z,97939.25
2022-10-09T06:58:47.986Z,97946.56
2022-10-09T07:01:17.713Z,97954.44
2022-10-09T07:03:47.686Z,97955.03
2022-10-09T07:06:17.306Z,97952.41
2022-10-09T07:08:46.996Z,97947.69
2022-10-09T07:11:16.824Z,97953.09
2022-10-09T07:13:46.686Z,97951.94
2022-10-09T07:16:14.953Z,97955.78
2022-10-09T07:18:43.726Z,97954.41
2022-10-09T07:21:11.995Z,97954.31
2022-10-09T07:23:40.977Z,97950.97
2022-10-09T07:26:15.325Z,97951.28
2022-10-09T07:28:46.289Z,97946.66
2022-10-09T07:31:14.917Z,97941.56
2022-10-09T07:33:43.688Z,97937.19
2022-10-09T07:36:12.235Z,97949.03
2022-10-09T07:38:40.505Z,97940.91
2022-10-09T07:41:10.269Z,97945.75
2022-10-09T07:43:40.618Z,97948.16
2022-10-09T07:46:13.425Z,97941.72
2022-10-09T07:48:41.765Z,97935.25
2022-10-09T07:51:11.183Z,97943.34
2022-10-09T07:53:39.905Z,97929.50
2022-10-09T07:56:08.256Z,97923.69
2022-10-09T07:58:36.526Z,97930.31
2022-10-09T08:01:06.219Z,97928.78
2022-10-09T08:03:36.075Z,97927.25
2022-10-09T08:06:05.201Z,97912.38
2022-10-09T08:08:33.432Z,97920.50
2022-10-09T08:11:01.893Z,97919.50
2022-10-09T08:13:30.035Z,97917.44
2022-10-09T08:16:00.746Z,97919.13
2022-10-09T08:18:29.062Z,97914.06
2022-10-09T08:21:03.465Z,97916.56
2022-10-09T08:23:31.536Z,97915.28
2022-10-09T08:25:59.699Z,97909.44
2022-10-09T08:28:28.141Z,97908.69
2022-10-09T08:30:56.700Z,97900.84
2022-10-09T08:33:26.140Z,97894.63
2022-10-09T08:35:55.247Z,97894.53
2022-10-09T08:38:46.247Z,97897.34
2022-10-09T08:41:18.015Z,97897.06
2022-10-09T08:43:48.693Z,97895.63
2022-10-09T08:46:21.830Z,97888.41
2022-10-09T08:48:50.807Z,97887.41
2022-10-09T08:51:23.468Z,97885.81
2022-10-09T08:53:56.856Z,97882.41
2022-10-09T08:56:25.553Z,97867.34
2022-10-09T08:58:53.747Z,97869.00
2022-10-09T09:01:28.538Z,97874.88
2022-10-09T09:04:20.906Z,97871.78
2022-10-09T09:06:53.357Z,97868.59
2022-10-09T09:09:27.805Z,97862.31
2022-10-09T09:11:59.355Z,97862.31
2022-10-09T09:14:37.867Z,97861.50
2022-10-09T09:17:10.625Z,97864.50
2022-10-09T09:19:57.119Z,97863.22
2022-10-09T09:22:26.786Z,97860.19
2022-10-09T09:24:59.225Z,97853.69
2022-10-09T09:27:30.778Z,97845.06
2022-10-09T09:30:05.098Z,97852.19
2022-10-09T09:32:34.685Z,97851.13
2022-10-09T09:35:13.026Z,97850.06
2022-10-09T09:37:41.315Z,97846.91
2022-10-09T09:43:08.037Z,97833.78
2022-10-09T09:45:36.765Z,97831.97
2022-10-09T09:48:08.422Z,97829.28
2022-10-09T09:53:30.695Z,97823.38
2022-10-09T09:56:00.305Z,97817.06
2022-10-09T09:58:35.436Z,97816.44
2022-10-09T10:01:04.620Z,97817.94
2022-10-09T10:03:32.986Z,97810.66
2022-10-09T10:06:01.676Z,97809.16
2022-10-09T10:08:31.500Z,97813.16
2022-10-09T10:11:02.397Z,97801.94
2022-10-09T10:13:35.627Z,97806.63
2022-10-09T10:16:04.559Z,97804.34
2022-10-09T10:18:39.336Z,97803.53
2022-10-09T10:21:11.066Z,97794.91
2022-10-09T10:23:41.555Z,97796.56
2022-10-09T10:26:27.006Z,97796.31
2022-10-09T10:29:00.325Z,97800.91
2022-10-09T10:31:43.522Z,97795.47
2022-10-09T10:34:17.236Z,97796.13
2022-10-09T10:37:02.496Z,97797.50
2022-10-09T10:39:35.688Z,97790.06
2022-10-09T10:42:09.015Z,97787.03
2022-10-09T10:44:42.006Z,97781.22
2022-10-09T10:47:16.445Z,97771.38
2022-10-09T10:49:44.545Z,97780.66
2022-10-09T10:52:21.008Z,97776.81
2022-10-09T10:54:53.875Z,97771.69
2022-10-09T10:57:28.085Z,97774.84
2022-10-09T11:00:04.260Z,97766.34
2022-10-09T11:03:14.747Z,97766.00
2022-10-09T11:05:50.717Z,97761.91
2022-10-09T11:08:36.596Z,97756.47
2022-10-09T11:11:09.755Z,97750.69
2022-10-09T11:13:46.306Z,97752.13
2022-10-09T11:16:35.116Z,97753.56
2022-10-09T11:19:29.716Z,97751.75
2022-10-09T11:22:01.405Z,97738.09
2022-10-09T11:24:53.666Z,97734.59
2022-10-09T11:27:25.553Z,97729.41
2022-10-09T11:29:58.645Z,97740.19
2022-10-09T11:32:32.726Z,97730.84
2022-10-09T11:35:03.668Z,97726.34
2022-10-09T11:37:35.295Z,97716.59
2022-10-09T11:40:06.977Z,97701.56
2022-10-09T11:42:35.478Z,97707.28
2022-10-09T11:45:15.526Z,97701.66
2022-10-09T11:47:49.885Z,97704.09
2022-10-09T11:50:34.485Z,97694.06
2022-10-09T11:53:06.226Z,97696.72
2022-10-09T11:55:35.316Z,97692.28
2022-10-09T11:58:15.177Z,97684.16
2022-10-09T12:00:44.847Z,97686.13
2022-10-09T12:03:26.595Z,97672.66
2022-10-09T12:06:05.048Z,97673.63
2022-10-09T12:08:33.275Z,97675.69
2022-10-09T12:11:11.576Z,97675.34
2022-10-09T12:13:50.346Z,97676.38
2022-10-09T12:16:50.065Z,97674.53
2022-10-09T12:19:21.435Z,97666.25
2022-10-09T12:21:58.115Z,97662.22
2022-10-09T12:24:28.507Z,97667.78
2022-10-09T12:26:58.023Z,97658.88
2022-10-09T12:29:28.355Z,97654.81
2022-10-09T12:32:03.425Z,97648.88
2022-10-09T12:34:34.237Z,97651.84
2022-10-09T12:37:20.835Z,97648.16
2022-10-09T12:39:50.675Z,97649.34
2022-10-09T12:42:22.200Z,97645.09
2022-10-09T12:44:51.691Z,97646.38
2022-10-09T12:47:23.915Z,97637.72
2022-10-09T12:50:04.896Z,97633.19
2022-10-09T12:52:33.911Z,97627.63
2022-10-09T12:55:03.298Z,97619.81
2022-10-09T12:57:31.508Z,97617.44
2022-10-09T12:59:59.835Z,97617.88
2022-10-09T13:02:29.668Z,97618.81
2022-10-09T13:05:00.525Z,97620.13
2022-10-09T13:07:30.928Z,97612.22
2022-10-09T13:10:06.475Z,97604.25
2022-10-09T13:12:35.327Z,97592.75
2022-10-09T13:15:05.956Z,97596.50
2022-10-09T13:17:38.026Z,97590.00
2022-10-09T13:20:25.458Z,97592.00
2022-10-09T13:22:57.445Z,97586.72
2022-10-09T13:25:26.005Z,97589.94
2022-10-09T13:27:54.638Z,97582.63
2022-10-09T13:30:23.897Z,97578.38
2022-10-09T13:32:53.564Z,97582.94
2022-10-09T13:35:22.626Z,97583.84
2022-10-09T13:37:51.091Z,97581.06
2022-10-09T13:40:22.098Z,97578.25
2022-10-09T13:42:54.210Z,97570.75
2022-10-09T13:45:22.683Z,97567.56
2022-10-09T13:47:51.121Z,97563.31
2022-10-09T13:50:21.717Z,97563.41
2022-10-09T13:52:49.951Z,97559.91
2022-10-09T13:55:18.263Z,97563.72
2022-10-09T13:57:48.094Z,97557.41
2022-10-09T14:00:16.660Z,97551.75
2022-10-09T14:02:45.176Z,97553.38
2022-10-09T14:05:14.355Z,97535.09
2022-10-09T14:07:44.208Z,97542.81
2022-10-09T14:10:12.424Z,97540.38
2022-10-09T14:12:40.685Z,97534.00
2022-10-09T14:15:09.456Z,97551.59
2022-10-09T14:17:38.296Z,97545.50
2022-10-09T14:20:07.809Z,97542.31
2022-10-09T14:22:35.972Z,97550.69
2022-10-09T14:25:06.518Z,97539.81
2022-10-09T14:30:09.648Z,97544.50
2022-10-09T14:32:37.845Z,97536.38
2022-10-09T14:35:06.546Z,97537.47
2022-10-09T14:37:42.817Z,97529.66
2022-10-09T14:40:12.920Z,97520.81
2022-10-09T14:42:41.735Z,97522.25
2022-10-09T14:45:11.335Z,97531.28
2022-10-09T14:47:39.616Z,97526.97
2022-10-09T14:50:08.642Z,97522.03
2022-10-09T14:52:36.886Z,97519.53
2022-10-09T14:55:05.602Z,97516.66
2022-10-09T14:57:35.746Z,97514.63
2022-10-09T15:00:06.579Z,97515.06
2022-10-09T15:02:34.814Z,97516.06
2022-10-09T15:05:03.371Z,97504.25
2022-10-09T15:07:32.196Z,97512.25
2022-10-09T15:10:00.606Z,97495.84
2022-10-09T15:12:28.846Z,97501.34
2022-10-09T15:14:58.486Z,97495.94
2022-10-09T15:17:27.065Z,97488.69
2022-10-09T15:19:55.326Z,97488.59
2022-10-09T15:22:24.606Z,97487.94
2022-10-09T15:24:52.775Z,97488.88
2022-10-09T15:27:21.493Z,97492.09
2022-10-09T15:29:49.605Z,97492.38
2022-10-09T15:32:19.145Z,97494.13
2022-10-09T15:34:47.338Z,97492.34
2022-10-09T15:37:15.525Z,97492.41
2022-10-09T15:39:43.736Z,97483.34
2022-10-09T15:42:11.932Z,97489.72
2022-10-09T15:44:40.105Z,97476.19
2022-10-09T15:47:08.297Z,97470.06
2022-10-09T15:49:38.286Z,97469.97
2022-10-09T15:52:06.393Z,97471.91
2022-10-09T15:54:34.783Z,97471.53
2022-10-09T15:57:03.496Z,97475.94
2022-10-09T15:59:31.856Z,97472.28
2022-10-09T16:02:00.049Z,97455.81
2022-10-09T16:04:29.475Z,97465.31
2022-10-09T16:06:59.305Z,97467.69
2022-10-09T16:09:27.566Z,97464.22
2022-10-09T16:11:55.650Z,97459.31
2022-10-09T16:14:23.785Z,97454.75
2022-10-09T16:16:52.019Z,97454.19
2022-10-09T16:19:20.107Z,97452.34
2022-10-09T16:21:48.277Z,97451.25
2022-10-09T16:24:18.025Z,97442.78
2022-10-09T16:26:46.270Z,97438.41
2022-10-09T16:29:14.356Z,97438.72
2022-10-09T16:31:42.515Z,97439.91
2022-10-09T16:34:11.026Z,97426.75
2022-10-09T16:36:39.237Z,97435.34
2022-10-09T16:39:07.418Z,97427.94
2022-10-09T16:41:41.080Z,97433.25
2022-10-09T16:44:14.513Z,97427.16
2022-10-09T16:46:42.678Z,97435.66
2022-10-09T16:49:19.978Z,97431.66
2022-10-09T16:51:50.986Z,97438.19
2022-10-09T16:54:19.168Z,97436.53
2022-10-09T16:56:49.026Z,97435.22
2022-10-09T16:59:17.213Z,97443.88
2022-10-09T17:01:46.646Z,97443.53
2022-10-09T17:04:15.499Z,97441.94
2022-10-09T17:06:45.746Z,97438.66
2022-10-09T17:09:14.945Z,97424.66
2022-10-09T17:11:43.051Z,97435.56
2022-10-09T17:14:13.226Z,97435.78
2022-10-09T17:16:43.535Z,97420.22
2022-10-09T17:19:11.757Z,97423.53
2022-10-09T17:21:39.963Z,97422.56
2022-10-09T17:24:10.263Z,97418.28
2022-10-09T17:26:38.627Z,97421.75
2022-10-09T17:29:07.520Z,97417.63
2022-10-09T17:31:37.560Z,97420.81
2022-10-09T17:34:06.117Z,97406.09
2022-10-09T17:36:36.504Z,97417.81
2022-10-09T17:39:05.637Z,97417.50
2022-10-09T17:41:34.364Z,97413.41
2022-10-09T17:44:02.515Z,97418.84
2022-10-09T17:46:30.886Z,97423.13
2022-10-09T17:49:01.539Z,97423.47
2022-10-09T17:51:31.484Z,97426.28
2022-10-09T17:54:03.313Z,97421.69
2022-10-09T17:56:33.709Z,97418.53
2022-10-09T17:59:02.485Z,97411.28
2022-10-09T18:01:31.171Z,97414.75
2022-10-09T18:04:01.610Z,97422.34
2022-10-09T18:06:32.556Z,97412.22
2022-10-09T18:09:00.796Z,97412.88
2022-10-09T18:11:30.229Z,97395.25
2022-10-09T18:13:58.476Z,97406.97
2022-10-09T18:16:36.478Z,97402.19
2022-10-09T18:19:11.616Z,97404.53
2022-10-09T18:21:40.456Z,97407.84
2022-10-09T18:24:08.725Z,97402.41
2022-10-09T18:26:38.654Z,97395.81
2022-10-09T18:29:07.297Z,97394.31
2022-10-09T18:31:35.835Z,97391.34
2022-10-09T18:34:04.457Z,97395.16
2022-10-09T18:36:35.099Z,97387.72
2022-10-09T18:39:05.456Z,97380.78
2022-10-09T18:41:33.826Z,97375.88
2022-10-09T18:44:03.168Z,97381.13
2022-10-09T18:46:35.787Z,97384.56
2022-10-09T18:49:04.195Z,97380.28
2022-10-09T18:51:33.986Z,97389.22
2022-10-09T18:54:04.479Z,97376.34
2022-10-09T18:56:33.833Z,97370.72
2022-10-09T18:59:03.215Z,97362.78
2022-10-09T19:01:31.478Z,97359.69
2022-10-09T19:03:59.665Z,97366.47
2022-10-09T19:06:27.810Z,97362.50
2022-10-09T19:09:01.051Z,97367.78
2022-10-09T19:11:30.105Z,97359.34
2022-10-09T19:14:00.238Z,97366.81
2022-10-09T19:16:28.794Z,97364.66
2022-10-09T19:18:57.005Z,97364.84
2022-10-09T19:21:25.403Z,97358.75
2022-10-09T19:23:56.578Z,97367.16
2022-10-09T19:26:24.787Z,97354.59
2022-10-09T19:28:53.511Z,97358.91
2022-10-09T19:31:22.469Z,97355.94
2022-10-09T19:33:50.764Z,97354.31
2022-10-09T19:36:19.604Z,97354.31
2022-10-09T19:38:47.986Z,97352.47
2022-10-09T19:41:18.425Z,97355.09
2022-10-09T19:43:46.566Z,97351.47
2022-10-09T19:46:17.487Z,97353.78
2022-10-09T19:48:46.156Z,97352.28
2022-10-09T19:51:15.914Z,97351.94
2022-10-09T19:53:44.505Z,97359.56
2022-10-09T19:56:14.276Z,97349.66
2022-10-09T19:58:45.061Z,97344.56
2022-10-09T20:01:14.234Z,97356.25
2022-10-09T20:03:43.537Z,97352.28
2022-10-09T20:06:12.353Z,97351.13
2022-10-09T20:08:42.365Z,97352.78
2022-10-09T20:11:12.398Z,97351.63
2022-10-09T20:13:41.875Z,97341.22
2022-10-09T20:16:13.876Z,97332.84
2022-10-09T20:18:43.861Z,97336.59
2022-10-09T20:21:13.325Z,97340.91
2022-10-09T20:23:42.044Z,97342.72
2022-10-09T20:26:13.616Z,97337.44
2022-10-09T20:28:41.820Z,97328.88
2022-10-09T20:31:14.926Z,97336.94
2022-10-09T20:33:43.696Z,97335.94
2022-10-09T20:36:19.744Z,97331.81
2022-10-09T20:38:48.589Z,97324.72
2022-10-09T20:41:16.806Z,97341.69
2022-10-09T20:43:45.126Z,97341.22
2022-10-09T20:46:15.976Z,97346.50
2022-10-09T20:48:44.467Z,97334.28
2022-10-09T20:51:12.566Z,97331.16
2022-10-09T20:53:41.387Z,97330.34
2022-10-09T20:56:11.278Z,97333.31
2022-10-09T20:58:39.959Z,97321.25
2022-10-09T21:01:09.312Z,97329.34
2022-10-09T21:03:39.726Z,97322.38
2022-10-09T21:06:09.975Z,97322.91
2022-10-09T21:08:38.336Z,97315.50
2022-10-09T21:11:07.744Z,97319.59
2022-10-09T21:13:36.625Z,97313.84
2022-10-09T21:16:06.536Z,97316.47
2022-10-09T21:18:34.725Z,97319.31
2022-10-09T21:21:07.630Z,97314.34
2022-10-09T21:23:36.736Z,97310.72
2022-10-09T21:26:05.273Z,97292.91
2022-10-09T21:28:33.438Z,97306.91
2022-10-09T21:31:02.530Z,97288.31
2022-10-09T21:33:30.645Z,97298.53
2022-10-09T21:35:58.776Z,97299.19
2022-10-09T21:38:28.363Z,97299.84
2022-10-09T21:40:56.553Z,97289.94
2022-10-09T21:43:24.700Z,97295.69
2022-10-09T21:45:52.773Z,97277.56
2022-10-09T21:48:20.916Z,97291.91
2022-10-09T21:50:49.075Z,97279.56
2022-10-09T21:53:17.226Z,97288.47
2022-10-09T21:55:46.987Z,97291.25
2022-10-09T21:58:15.165Z,97302.31
2022-10-09T22:00:43.268Z,97292.72
2022-10-09T22:03:11.417Z,97294.88
2022-10-09T22:05:41.195Z,97296.69
2022-10-09T22:08:09.405Z,97291.41
2022-10-09T22:10:37.536Z,97286.97
2022-10-09T22:13:07.015Z,97288.09
2022-10-09T22:15:35.183Z,97295.84
2022-10-09T22:18:03.296Z,97289.91
2022-10-09T22:20:31.405Z,97282.47
2022-10-09T22:22:59.556Z,97285.47
2022-10-09T22:25:27.868Z,97276.53
2022-10-09T22:27:55.965Z,97288.28
2022-10-09T22:30:25.535Z,97278.84
2022-10-09T22:32:54.305Z,97285.75
2022-10-09T22:35:23.237Z,97265.84
2022-10-09T22:37:51.360Z,97275.06
2022-10-09T22:40:19.693Z,97279.03
2022-10-09T22:42:48.042Z,97269.13
2022-10-09T22:45:16.619Z,97274.09
2022-10-09T22:47:47.868Z,97269.97
2022-10-09T22:50:16.233Z,97267.13
2022-10-09T22:52:44.368Z,97259.41
2022-10-09T22:55:12.525Z,97268.13
2022-10-09T22:57:40.603Z,97261.38
2022-10-09T23:00:09.816Z,97267.81
2022-10-09T23:02:37.984Z,97260.88
2022-10-09T23:05:08.221Z,97263.81
2022-10-09T23:07:36.538Z,97244.34
2022-10-09T23:10:05.258Z,97261.53
2022-10-09T23:12:33.568Z,97267.66
2022-10-09T23:15:01.887Z,97269.63
2022-10-09T23:17:30.522Z,97254.44
2022-10-09T23:19:58.835Z,97267.16
2022-10-09T23:22:28.289Z,97267.31
2022-10-09T23:24:56.421Z,97271.09
2022-10-09T23:27:24.658Z,97265.69
2022-10-09T23:29:52.819Z,97262.03
2022-10-09T23:32:20.952Z,97261.22
2022-10-09T23:34:49.151Z,97258.44
2022-10-09T23:37:17.249Z,97262.72
2022-10-09T23:39:46.861Z,97261.06
2022-10-09T23:42:14.976Z,97260.72
2022-10-09T23:44:43.331Z,97259.25
2022-10-09T23:47:11.429Z,97257.25
2022-10-09T23:49:39.681Z,97258.75
2022-10-09T23:52:07.739Z,97249.34
2022-10-09T23:54:35.829Z,97254.81
2022-10-09T23:57:05.399Z,97246.19
2022-10-09T23:59:33.468Z,97244.06
